createdAt,value
2023-02-16T00:00:32.039Z,97578.31
2023-02-16T00:02:59.226Z,97577.50
2023-02-16T00:05:31.671Z,97575.00
2023-02-16T00:08:00.116Z,97569.59
2023-02-16T00:10:33.638Z,97567.13
2023-02-16T00:13:19.972Z,97570.19
2023-02-16T00:15:47.473Z,97572.56
2023-02-16T00:18:21.215Z,97556.03
2023-02-16T00:20:51.112Z,97561.81
2023-02-16T00:23:17.990Z,97554.97
2023-02-16T00:25:44.819Z,97565.59
2023-02-16T00:28:18.396Z,97560.28
2023-02-16T00:30:46.059Z,97558.16
2023-02-16T00:33:18.672Z,97559.56
2023-02-16T00:35:45.519Z,97563.09
2023-02-16T00:38:13.443Z,97563.22
2023-02-16T00:40:41.702Z,97553.88
2023-02-16T00:43:12.518Z,97557.09
2023-02-16T00:45:39.334Z,97553.66
2023-02-16T00:48:06.254Z,97547.44
2023-02-16T00:50:34.795Z,97535.97
2023-02-16T00:53:02.819Z,97548.00
2023-02-16T00:55:35.391Z,97546.97
2023-02-16T00:58:15.384Z,97557.34
2023-02-16T01:00:47.528Z,97549.16
2023-02-16T01:03:20.910Z,97542.09
2023-02-16T01:05:47.767Z,97545.88
2023-02-16T01:08:36.536Z,97549.66
2023-02-16T01:11:07.978Z,97549.66
2023-02-16T01:13:48.868Z,97547.06
2023-02-16T01:16:22.850Z,97549.31
2023-02-16T01:18:50.747Z,97544.00
2023-02-16T01:21:17.655Z,97548.00
2023-02-16T01:23:45.536Z,97543.28
2023-02-16T01:26:16.317Z,97551.53
2023-02-16T01:28:44.198Z,97544.69
2023-02-16T01:31:13.057Z,97548.00
2023-02-16T01:33:41.403Z,97541.78
2023-02-16T01:36:35.352Z,97540.34
2023-02-16T01:39:03.155Z,97545.66
2023-02-16T01:42:09.597Z,97537.28
2023-02-16T01:44:47.367Z,97537.84
2023-02-16T01:47:46.575Z,97527.72
2023-02-16T01:50:22.407Z,97526.78
2023-02-16T01:53:09.572Z,97529.13
2023-02-16T01:55:44.720Z,97531.88
2023-02-16T01:58:51.104Z,97533.97
2023-02-16T02:01:35.787Z,97531.44
2023-02-16T02:04:39.956Z,97521.97
2023-02-16T02:07:07.445Z,97519.78
2023-02-16T02:09:55.054Z,97525.44
2023-02-16T02:12:37.759Z,97522.03
2023-02-16T02:15:05.113Z,97511.66
2023-02-16T02:17:31.991Z,97510.03
2023-02-16T02:20:20.822Z,97509.66
2023-02-16T02:23:34.102Z,97508.13
2023-02-16T02:26:25.763Z,97501.38
2023-02-16T02:29:34.311Z,97504.72
2023-02-16T02:32:16.046Z,97510.25
2023-02-16T02:35:33.745Z,97494.22
2023-02-16T02:38:34.519Z,97499.41
2023-02-16T02:41:20.648Z,97495.56
2023-02-16T02:43:57.497Z,97496.00
2023-02-16T02:46:35.159Z,97510.91
2023-02-16T02:49:01.990Z,97516.09
2023-02-16T02:51:28.825Z,97503.59
2023-02-16T02:54:27.830Z,97505.00
2023-02-16T02:57:22.286Z,97514.69
2023-02-16T03:01:03.751Z,97511.38
2023-02-16T03:03:43.149Z,97507.38
2023-02-16T03:06:25.841Z,97511.88
2023-02-16T03:09:03.126Z,97512.69
2023-02-16T03:11:48.687Z,97514.22
2023-02-16T03:14:18.768Z,97513.78
2023-02-16T03:17:10.680Z,97501.97
2023-02-16T03:19:59.000Z,97505.28
2023-02-16T03:22:44.983Z,97505.06
2023-02-16T03:25:30.703Z,97504.53
2023-02-16T03:28:19.095Z,97501.03
2023-02-16T03:30:47.521Z,97504.53
2023-02-16T03:33:14.833Z,97495.56
2023-02-16T03:35:42.338Z,97500.53
2023-02-16T03:38:09.320Z,97506.91
2023-02-16T03:40:40.734Z,97514.41
2023-02-16T03:43:08.962Z,97515.00
2023-02-16T03:45:44.169Z,97529.03
2023-02-16T03:48:11.531Z,97517.03
2023-02-16T03:50:38.444Z,97521.00
2023-02-16T03:53:08.372Z,97525.72
2023-02-16T03:55:40.477Z,97531.56
2023-02-16T03:58:09.861Z,97529.72
2023-02-16T04:00:37.900Z,97527.84
2023-02-16T04:03:06.020Z,97523.56
2023-02-16T04:05:33.495Z,97533.47
2023-02-16T04:08:00.533Z,97535.97
2023-02-16T04:10:27.518Z,97533.47
2023-02-16T04:12:54.476Z,97535.25
2023-02-16T04:15:26.099Z,97533.88
2023-02-16T04:17:54.081Z,97525.44
2023-02-16T04:20:26.149Z,97532.03
2023-02-16T04:22:53.296Z,97533.81
2023-02-16T04:25:20.943Z,97537.72
2023-02-16T04:27:49.648Z,97537.41
2023-02-16T04:30:20.956Z,97536.34
2023-02-16T04:32:48.209Z,97527.53
2023-02-16T04:35:15.816Z,97520.91
2023-02-16T04:37:42.762Z,97514.56
2023-02-16T04:40:14.727Z,97506.81
2023-02-16T04:42:43.267Z,97512.00
2023-02-16T04:45:11.625Z,97508.56
2023-02-16T04:47:38.508Z,97510.44
2023-02-16T04:50:06.665Z,97510.13
2023-02-16T04:52:34.208Z,97505.59
2023-02-16T04:55:01.089Z,97508.47
2023-02-16T04:57:28.233Z,97517.19
2023-02-16T04:59:55.269Z,97517.19
2023-02-16T05:02:22.123Z,97512.44
2023-02-16T05:04:49.031Z,97518.84
2023-02-16T05:07:16.057Z,97512.81
2023-02-16T05:09:42.915Z,97521.59
2023-02-16T05:12:29.812Z,97515.84
2023-02-16T05:14:56.685Z,97515.47
2023-02-16T05:17:27.363Z,97525.47
2023-02-16T05:19:57.963Z,97523.38
2023-02-16T05:22:25.838Z,97525.03
2023-02-16T05:24:52.747Z,97526.41
2023-02-16T05:27:30.540Z,97527.56
2023-02-16T05:29:58.205Z,97529.81
2023-02-16T05:32:25.662Z,97535.59
2023-02-16T05:34:52.518Z,97540.69
2023-02-16T05:37:19.675Z,97540.91
2023-02-16T05:39:46.736Z,97539.19
2023-02-16T05:42:13.873Z,97541.16
2023-02-16T05:44:40.710Z,97543.94
2023-02-16T05:47:07.618Z,97549.84
2023-02-16T05:49:34.544Z,97542.88
2023-02-16T05:52:01.421Z,97545.50
2023-02-16T05:54:28.427Z,97544.13
2023-02-16T05:56:55.748Z,97539.06
2023-02-16T05:59:22.680Z,97538.78
2023-02-16T06:01:51.809Z,97538.34
2023-02-16T06:04:21.100Z,97543.91
2023-02-16T06:06:48.699Z,97553.63
2023-02-16T06:09:15.642Z,97550.78
2023-02-16T06:11:43.199Z,97557.19
2023-02-16T06:14:15.662Z,97560.25
2023-02-16T06:16:45.102Z,97565.25
2023-02-16T06:19:13.124Z,97568.53
2023-02-16T06:21:41.056Z,97557.56
2023-02-16T06:24:10.213Z,97562.66
2023-02-16T06:26:37.356Z,97566.72
2023-02-16T06:29:05.216Z,97573.56
2023-02-16T06:31:33.904Z,97563.84
2023-02-16T06:34:03.691Z,97574.47
2023-02-16T06:36:30.895Z,97583.97
2023-02-16T06:38:57.691Z,97586.63
2023-02-16T06:41:40.072Z,97589.13
2023-02-16T06:44:14.288Z,97587.50
2023-02-16T06:46:46.809Z,97582.00
2023-02-16T06:49:19.916Z,97580.53
2023-02-16T06:51:48.837Z,97582.59
2023-02-16T06:54:16.866Z,97579.47
2023-02-16T06:56:43.767Z,97589.59
2023-02-16T06:59:12.762Z,97583.19
2023-02-16T07:01:39.720Z,97584.22
2023-02-16T07:04:06.677Z,97586.84
2023-02-16T07:06:33.481Z,97593.69
2023-02-16T07:09:00.431Z,97596.56
2023-02-16T07:11:27.433Z,97594.34
2023-02-16T07:13:54.243Z,97601.06
2023-02-16T07:16:21.433Z,97602.28
2023-02-16T07:18:48.312Z,97603.84
2023-02-16T07:21:15.648Z,97600.69
2023-02-16T07:23:42.722Z,97601.84
2023-02-16T07:26:10.024Z,97593.69
2023-02-16T07:28:37.074Z,97595.69
2023-02-16T07:31:13.078Z,97600.25
2023-02-16T07:33:40.161Z,97596.56
2023-02-16T07:36:08.488Z,97598.59
2023-02-16T07:38:35.693Z,97600.41
2023-02-16T07:41:03.123Z,97600.63
2023-02-16T07:43:30.162Z,97603.78
2023-02-16T07:45:57.121Z,97614.78
2023-02-16T07:48:23.937Z,97620.25
2023-02-16T07:50:50.766Z,97614.00
2023-02-16T07:53:17.874Z,97623.25
2023-02-16T07:55:46.463Z,97620.31
2023-02-16T07:58:27.440Z,97610.06
2023-02-16T08:01:14.066Z,97603.38
2023-02-16T08:03:42.379Z,97616.91
2023-02-16T08:06:09.375Z,97619.75
2023-02-16T08:08:38.065Z,97614.81
2023-02-16T08:11:25.364Z,97621.88
2023-02-16T08:13:53.041Z,97623.75
2023-02-16T08:16:24.236Z,97622.81
2023-02-16T08:18:52.052Z,97624.19
2023-02-16T08:21:23.479Z,97620.03
2023-02-16T08:24:02.697Z,97616.81
2023-02-16T08:26:43.099Z,97625.25
2023-02-16T08:29:12.593Z,97623.22
2023-02-16T08:31:40.097Z,97625.00
2023-02-16T08:34:07.955Z,97615.91
2023-02-16T08:36:38.202Z,97626.19
2023-02-16T08:39:19.511Z,97619.97
2023-02-16T08:41:48.832Z,97623.50
2023-02-16T08:44:18.214Z,97627.19
2023-02-16T08:46:47.715Z,97627.41
2023-02-16T08:49:17.408Z,97622.91
2023-02-16T08:51:48.231Z,97625.66
2023-02-16T08:54:30.110Z,97626.13
2023-02-16T08:56:59.759Z,97625.03
2023-02-16T08:59:28.774Z,97631.03
2023-02-16T09:01:59.998Z,97633.09
2023-02-16T09:04:29.104Z,97626.00
2023-02-16T09:06:58.102Z,97615.19
2023-02-16T09:09:26.442Z,97615.50
2023-02-16T09:11:53.593Z,97612.09
2023-02-16T09:14:21.497Z,97616.84
2023-02-16T09:16:48.908Z,97624.13
2023-02-16T09:19:20.380Z,97624.84
2023-02-16T09:21:50.546Z,97622.91
2023-02-16T09:24:18.009Z,97623.59
2023-02-16T09:26:44.909Z,97616.56
2023-02-16T09:29:14.740Z,97619.63
2023-02-16T09:31:42.535Z,97612.06
2023-02-16T09:34:22.578Z,97627.28
2023-02-16T09:36:50.651Z,97627.47
2023-02-16T09:39:17.746Z,97627.84
2023-02-16T09:42:30.510Z,97613.81
2023-02-16T09:45:11.479Z,97613.41
2023-02-16T09:47:44.990Z,97615.97
2023-02-16T09:50:50.338Z,97612.59
2023-02-16T09:53:55.161Z,97608.72
2023-02-16T09:56:36.719Z,97603.44
2023-02-16T09:59:28.354Z,97613.97
2023-02-16T10:02:27.011Z,97624.50
2023-02-16T10:05:14.333Z,97607.94
2023-02-16T10:08:14.485Z,97612.16
2023-02-16T10:10:50.696Z,97612.97
2023-02-16T10:13:32.007Z,97612.25
2023-02-16T10:16:01.598Z,97612.47
2023-02-16T10:18:41.790Z,97623.00
2023-02-16T10:21:18.593Z,97603.19
2023-02-16T10:24:06.839Z,97595.19
2023-02-16T10:26:46.298Z,97614.53
2023-02-16T10:29:24.000Z,97606.13
2023-02-16T10:32:26.093Z,97605.16
2023-02-16T10:35:17.277Z,97600.53
2023-02-16T10:37:56.254Z,97596.44
2023-02-16T10:41:08.255Z,97589.31
2023-02-16T10:43:46.524Z,97592.84
2023-02-16T10:46:24.192Z,97594.75
2023-02-16T10:48:55.976Z,97586.59
2023-02-16T10:51:28.956Z,97584.03
2023-02-16T10:54:07.752Z,97572.47
2023-02-16T10:56:39.419Z,97578.31
2023-02-16T10:59:42.057Z,97580.66
2023-02-16T11:02:25.429Z,97580.81
2023-02-16T11:04:56.319Z,97570.16
2023-02-16T11:07:27.062Z,97567.75
2023-02-16T11:09:57.332Z,97570.00
2023-02-16T11:12:42.176Z,97570.50
2023-02-16T11:15:18.790Z,97560.72
2023-02-16T11:17:57.324Z,97563.59
2023-02-16T11:20:44.922Z,97555.78
2023-02-16T11:23:17.796Z,97537.19
2023-02-16T11:26:12.211Z,97540.63
2023-02-16T11:28:48.408Z,97539.84
2023-02-16T11:31:39.314Z,97522.13
2023-02-16T11:34:08.484Z,97524.34
2023-02-16T11:36:43.472Z,97522.69
2023-02-16T11:39:24.655Z,97512.81
2023-02-16T11:42:18.871Z,97510.25
2023-02-16T11:44:53.904Z,97508.16
2023-02-16T11:47:42.026Z,97512.50
2023-02-16T11:50:25.815Z,97515.88
2023-02-16T11:53:42.751Z,97508.44
2023-02-16T11:56:29.201Z,97499.97
2023-02-16T11:59:20.972Z,97496.25
2023-02-16T12:02:12.314Z,97490.16
2023-02-16T12:04:53.624Z,97493.25
2023-02-16T12:07:41.189Z,97490.13
2023-02-16T12:10:38.610Z,97493.25
2023-02-16T12:13:42.015Z,97479.94
2023-02-16T12:16:37.157Z,97467.56
2023-02-16T12:19:41.846Z,97471.53
2023-02-16T12:22:14.759Z,97465.78
2023-02-16T12:24:55.526Z,97458.16
2023-02-16T12:27:51.541Z,97448.06
2023-02-16T12:30:40.222Z,97454.31
2023-02-16T12:33:15.906Z,97444.81
2023-02-16T12:36:12.295Z,97442.72
2023-02-16T12:39:12.827Z,97433.03
2023-02-16T12:42:36.928Z,97437.75
2023-02-16T12:45:22.192Z,97425.00
2023-02-16T12:48:02.092Z,97429.88
2023-02-16T12:50:31.505Z,97427.19
2023-02-16T12:53:44.191Z,97420.66
2023-02-16T12:56:22.541Z,97412.63
2023-02-16T12:58:58.008Z,97409.19
2023-02-16T13:01:31.438Z,97409.53
2023-02-16T13:04:16.118Z,97399.66
2023-02-16T13:06:51.038Z,97402.25
2023-02-16T13:09:51.561Z,97399.22
2023-02-16T13:12:32.050Z,97402.63
2023-02-16T13:15:29.031Z,97395.81
2023-02-16T13:18:05.526Z,97389.53
2023-02-16T13:20:32.933Z,97378.78
2023-02-16T13:23:27.335Z,97382.09
2023-02-16T13:26:32.202Z,97382.13
2023-02-16T13:29:11.238Z,97381.09
2023-02-16T13:35:21.138Z,97372.97
2023-02-16T13:38:15.599Z,97381.31
2023-02-16T13:41:03.311Z,97371.75
2023-02-16T13:43:40.605Z,97369.91
2023-02-16T13:46:18.064Z,97373.50
2023-02-16T13:48:50.982Z,97378.16
2023-02-16T13:51:24.103Z,97374.09
2023-02-16T13:53:57.690Z,97367.34
2023-02-16T13:56:33.303Z,97366.25
2023-02-16T13:59:20.109Z,97368.41
2023-02-16T14:01:54.814Z,97366.00
2023-02-16T14:04:27.371Z,97364.19
2023-02-16T14:07:03.356Z,97365.03
2023-02-16T14:09:39.355Z,97361.09
2023-02-16T14:12:11.906Z,97358.69
2023-02-16T14:14:41.793Z,97353.31
2023-02-16T14:17:21.700Z,97349.03
2023-02-16T14:20:11.720Z,97352.00
2023-02-16T14:22:57.266Z,97349.13
2023-02-16T14:25:24.026Z,97346.75
2023-02-16T14:28:01.694Z,97336.53
2023-02-16T14:30:55.374Z,97338.59
2023-02-16T14:33:33.561Z,97332.66
2023-02-16T14:36:00.293Z,97338.81
2023-02-16T14:38:43.703Z,97340.84
2023-02-16T14:41:23.906Z,97331.34
2023-02-16T14:43:56.127Z,97340.81
2023-02-16T14:46:44.097Z,97342.78
2023-02-16T14:50:03.587Z,97343.81
2023-02-16T14:53:06.148Z,97337.09
2023-02-16T14:56:03.759Z,97337.59
2023-02-16T14:58:48.416Z,97336.53
2023-02-16T15:01:18.493Z,97331.88
2023-02-16T15:03:50.716Z,97324.84
2023-02-16T15:06:30.181Z,97328.03
2023-02-16T15:09:06.561Z,97325.66
2023-02-16T15:11:57.436Z,97326.50
2023-02-16T15:14:26.029Z,97319.00
2023-02-16T15:16:53.293Z,97319.31
2023-02-16T15:19:28.779Z,97311.97
2023-02-16T15:22:22.893Z,97321.41
2023-02-16T15:25:07.923Z,97327.03
2023-02-16T15:27:34.690Z,97329.69
2023-02-16T15:30:24.524Z,97335.84
2023-02-16T15:33:04.346Z,97337.25
2023-02-16T15:35:38.471Z,97338.56
2023-02-16T15:38:25.056Z,97335.50
2023-02-16T15:40:58.080Z,97334.78
2023-02-16T15:43:50.003Z,97331.50
2023-02-16T15:46:39.648Z,97340.50
2023-02-16T15:49:30.422Z,97324.66
2023-02-16T15:51:59.275Z,97336.59
2023-02-16T15:54:31.203Z,97343.06
2023-02-16T15:57:12.679Z,97336.31
2023-02-16T15:59:47.555Z,97338.09
2023-02-16T16:02:18.684Z,97339.81
2023-02-16T16:04:57.453Z,97333.31
2023-02-16T16:07:31.344Z,97337.47
2023-02-16T16:09:59.639Z,97333.78
2023-02-16T16:12:27.074Z,97329.84
2023-02-16T16:14:58.373Z,97338.38
2023-02-16T16:17:30.726Z,97340.63
2023-02-16T16:20:31.463Z,97348.22
2023-02-16T16:23:23.792Z,97353.19
2023-02-16T16:25:51.156Z,97351.75
2023-02-16T16:28:29.729Z,97346.41
2023-02-16T16:31:16.436Z,97349.06
2023-02-16T16:34:02.568Z,97339.53
2023-02-16T16:36:55.273Z,97345.19
2023-02-16T16:39:32.702Z,97335.50
2023-02-16T16:42:20.551Z,97343.75
2023-02-16T16:45:36.041Z,97349.75
2023-02-16T16:48:28.565Z,97349.41
2023-02-16T16:51:20.966Z,97354.69
2023-02-16T16:53:51.611Z,97353.03
2023-02-16T16:56:19.169Z,97351.09
2023-02-16T16:58:59.565Z,97345.41
2023-02-16T17:01:28.258Z,97351.75
2023-02-16T17:03:55.482Z,97353.28
2023-02-16T17:06:23.824Z,97361.50
2023-02-16T17:08:51.100Z,97357.94
2023-02-16T17:11:32.017Z,97351.81
2023-02-16T17:14:16.960Z,97358.63
2023-02-16T17:16:47.580Z,97355.84
2023-02-16T17:19:18.112Z,97346.38
2023-02-16T17:21:46.094Z,97352.25
2023-02-16T17:24:15.880Z,97353.41
2023-02-16T17:26:42.884Z,97355.03
2023-02-16T17:29:10.605Z,97359.53
2023-02-16T17:31:37.543Z,97359.34
2023-02-16T17:34:04.510Z,97366.91
2023-02-16T17:36:32.805Z,97365.78
2023-02-16T17:38:59.633Z,97367.75
2023-02-16T17:41:29.003Z,97359.69
2023-02-16T17:43:56.368Z,97365.94
2023-02-16T17:46:25.504Z,97364.97
2023-02-16T17:48:55.097Z,97360.38
2023-02-16T17:51:24.461Z,97359.94
2023-02-16T17:53:51.688Z,97368.66
2023-02-16T17:56:22.366Z,97370.94
2023-02-16T17:58:50.647Z,97367.00
2023-02-16T18:01:19.893Z,97362.72
2023-02-16T18:03:46.856Z,97365.34
2023-02-16T18:06:16.800Z,97367.00
2023-02-16T18:08:44.313Z,97364.28
2023-02-16T18:11:11.819Z,97357.91
2023-02-16T18:13:38.744Z,97362.53
2023-02-16T18:16:07.512Z,97363.50
2023-02-16T18:18:39.088Z,97361.34
2023-02-16T18:21:06.776Z,97362.19
2023-02-16T18:23:33.936Z,97361.19
2023-02-16T18:26:00.815Z,97357.59
2023-02-16T18:28:33.068Z,97365.13
2023-02-16T18:31:00.735Z,97367.06
2023-02-16T18:33:28.381Z,97368.41
2023-02-16T18:35:57.628Z,97366.91
2023-02-16T18:38:25.238Z,97376.91
2023-02-16T18:40:54.162Z,97382.16
2023-02-16T18:43:22.850Z,97384.31
2023-02-16T18:45:50.358Z,97384.47
2023-02-16T18:48:17.438Z,97390.41
2023-02-16T18:50:44.748Z,97390.06
2023-02-16T18:53:11.589Z,97392.66
2023-02-16T18:55:38.466Z,97395.63
2023-02-16T18:58:08.229Z,97397.25
2023-02-16T19:00:36.512Z,97396.47
2023-02-16T19:03:03.829Z,97392.88
2023-02-16T19:05:31.401Z,97391.72
2023-02-16T19:07:58.284Z,97394.66
2023-02-16T19:10:25.214Z,97393.38
2023-02-16T19:12:52.271Z,97397.31
2023-02-16T19:15:19.294Z,97394.50
2023-02-16T19:17:46.106Z,97389.75
2023-02-16T19:20:18.018Z,97395.19
2023-02-16T19:22:46.952Z,97392.38
2023-02-16T19:25:15.132Z,97401.59
2023-02-16T19:27:42.660Z,97401.59
2023-02-16T19:30:10.368Z,97393.69
2023-02-16T19:32:38.506Z,97392.06
2023-02-16T19:35:05.539Z,97395.16
2023-02-16T19:37:32.392Z,97394.34
2023-02-16T19:39:59.268Z,97394.03
2023-02-16T19:42:26.154Z,97387.78
2023-02-16T19:44:53.103Z,97389.41
2023-02-16T19:47:20.046Z,97397.97
2023-02-16T19:49:46.904Z,97387.63
2023-02-16T19:52:13.724Z,97391.22
2023-02-16T19:54:40.636Z,97391.56
2023-02-16T19:57:07.562Z,97390.09
2023-02-16T19:59:34.593Z,97390.09
2023-02-16T20:02:01.599Z,97385.66
2023-02-16T20:04:28.537Z,97386.81
2023-02-16T20:06:56.449Z,97388.13
2023-02-16T20:09:24.364Z,97388.13
2023-02-16T20:11:51.875Z,97384.19
2023-02-16T20:14:18.726Z,97388.78
2023-02-16T20:16:45.912Z,97383.03
2023-02-16T20:19:12.844Z,97385.50
2023-02-16T20:21:43.955Z,97379.25
2023-02-16T20:24:11.282Z,97380.75
2023-02-16T20:26:42.491Z,97388.78
2023-02-16T20:29:13.799Z,97375.50
2023-02-16T20:31:52.702Z,97379.56
2023-02-16T20:34:20.946Z,97392.22
2023-02-16T20:36:47.794Z,97378.28
2023-02-16T20:39:14.896Z,97382.19
2023-02-16T20:41:42.281Z,97376.63
2023-02-16T20:44:09.546Z,97383.53
2023-02-16T20:46:38.199Z,97373.69
2023-02-16T20:49:06.846Z,97375.00
2023-02-16T20:51:35.105Z,97384.19
2023-02-16T20:54:03.238Z,97373.03
2023-02-16T20:56:30.352Z,97374.34
2023-02-16T20:58:58.496Z,97382.72
2023-02-16T21:01:39.760Z,97375.47
2023-02-16T21:04:08.149Z,97374.84
2023-02-16T21:06:36.389Z,97373.69
2023-02-16T21:09:05.266Z,97365.81
2023-02-16T21:11:32.362Z,97375.00
2023-02-16T21:13:59.649Z,97379.91
2023-02-16T21:16:26.667Z,97375.66
2023-02-16T21:18:53.554Z,97377.63
2023-02-16T21:21:21.108Z,97376.94
2023-02-16T21:23:51.658Z,97369.25
2023-02-16T21:26:21.684Z,97361.88
2023-02-16T21:28:48.984Z,97357.28
2023-02-16T21:31:22.998Z,97361.06
2023-02-16T21:33:50.056Z,97368.78
2023-02-16T21:36:23.994Z,97371.25
2023-02-16T21:38:51.417Z,97354.00
2023-02-16T21:41:29.677Z,97352.03
2023-02-16T21:44:01.701Z,97363.50
2023-02-16T21:46:36.009Z,97359.25
2023-02-16T21:49:08.534Z,97363.50
2023-02-16T21:51:38.565Z,97364.84
2023-02-16T21:54:08.685Z,97357.94
2023-02-16T21:56:51.349Z,97357.94
2023-02-16T21:59:19.739Z,97367.44
2023-02-16T22:01:53.440Z,97361.88
2023-02-16T22:04:22.562Z,97355.81
2023-02-16T22:06:51.194Z,97363.50
2023-02-16T22:09:21.785Z,97362.50
2023-02-16T22:11:50.099Z,97357.78
2023-02-16T22:14:16.957Z,97348.09
2023-02-16T22:16:46.336Z,97348.41
2023-02-16T22:19:16.173Z,97351.38
2023-02-16T22:21:45.227Z,97341.38
2023-02-16T22:24:14.217Z,97353.03
2023-02-16T22:26:41.347Z,97347.78
2023-02-16T22:29:09.380Z,97350.03
2023-02-16T22:31:37.121Z,97352.66
2023-02-16T22:34:08.364Z,97353.66
2023-02-16T22:36:37.331Z,97349.41
2023-02-16T22:39:04.965Z,97341.88
2023-02-16T22:41:32.269Z,97344.50
2023-02-16T22:43:59.942Z,97344.97
2023-02-16T22:46:29.028Z,97349.44
2023-02-16T22:49:00.468Z,97339.91
2023-02-16T22:51:30.195Z,97346.44
2023-02-16T22:54:01.689Z,97345.13
2023-02-16T22:56:29.694Z,97340.50
2023-02-16T22:58:58.151Z,97343.59
2023-02-16T23:01:28.033Z,97338.16
2023-02-16T23:03:57.437Z,97336.78
2023-02-16T23:06:31.351Z,97331.84
2023-02-16T23:09:04.170Z,97339.03
2023-02-16T23:11:33.617Z,97335.44
2023-02-16T23:14:00.681Z,97342.34
2023-02-16T23:16:28.570Z,97338.69
2023-02-16T23:18:58.125Z,97337.41
2023-02-16T23:21:30.433Z,97342.34
2023-02-16T23:23:58.125Z,97339.03
2023-02-16T23:26:28.209Z,97344.63
2023-02-16T23:28:57.509Z,97328.53
2023-02-16T23:31:24.530Z,97332.16
2023-02-16T23:33:52.362Z,97337.41
2023-02-16T23:36:19.242Z,97339.38
2023-02-16T23:38:46.357Z,97342.97
2023-02-16T23:41:14.997Z,97335.06
2023-02-16T23:43:42.165Z,97332.16
2023-02-16T23:46:09.604Z,97328.53
2023-02-16T23:48:38.062Z,97331.16
2023-02-16T23:51:05.563Z,97320.66
2023-02-16T23:53:33.013Z,97329.53
2023-02-16T23:56:14.113Z,97333.44
2023-02-16T23:58:42.715Z,97331.81
